Terminal Aerodrome Forecast
Issued by NWS Jackson, MS

Home | Current Version | Previous Version | Text Only | Print | Product List | Glossary On
Versions: 1 2 3 4 5 6 7 8 9 10 11 12 13 14 15 16 17 18 19 20 21 22 23 24
000
FTUS44 KJAN 241100 AAA
TAFGWO
TAF AMD
KGWO 241157Z 2412/2512 00000KT 1/4SM FG VV002
     FM241330 36003KT 3SM BR SCT020
     FM241400 36003KT P6SM SCT025
     FM241700 35005KT P6SM VCTS SCT030 BKN050CB
     FM242000 36007KT P6SM FEW030 SCT050
     FM250100 01003KT P6SM FEW250
     FM250900 00000KT 5SM BR SKC=

USA.gov is the U.S. government's official web portal to all federal, state and local government web resources and services.